Brainard, New York
Current Conditions -  °F | °C
As of 11:54 PM on Tuesday 25 Nov 2014 (Local Time) from KPSF Reporting Station
Clear Clear  
Wind Chill: 31°   Ceiling: Unl
Heat Index: 37°   Visibility: 10mi
Dew Point: 26°   Wind: 8mph
Humidity: 65%   Direction: 310°NW
Pressure: 30.11"   Gusts: NA
Location:  42.5°N, 73.51°W
Report Text: KPSF 260454Z AUTO 31007KT 10SM CLR 03/M03 A3011 RMK AO2 SLP195 T00281033 401560011
Loading
Personal Weather Stations






























Interactive Weather Map New forecast layout! Learn more

10-Day Weather Forecast

Advertisements
Track Severe Weather on mobile